Westfield, NC (27053)

06:18 EDT le 29 août 2014 (GMT -0400)
Hanging Rock State Park Visitor Center | Change Station
CLOSE
Current Station
Stations météorologiques personnelles
Location: Danbury, NC
Altitude: 1683 ft
Stations météo à proximité

Alt. 1683 ft 36.40 °N, 80.27 °W | Updated 12 minutes ago

Ciel dégagé
Ciel dégagé
66.7 ° F
Paraît 66.7 ° F
N
0.0
Vent Variable Vent de NO

Aujourd'hui
Haut(e) -- | Bas -- ° F
--% Risque de précip.
Hier
Haut(e) -- | Bas -- ° F
Precip. -- pouce
6:50 AM 7:53 PM
Lune montante, 13% visible
Pression 30.13 pouce
Visibilité 10.0 Miles terrestres
Nuages Nuages épars 5000 ft
Point de rosée 64 ° F
Humidité 92%
Précipitations 0.00 pouce
Profondeur de la couche neigeuse Non disponible.
UV 0 sur 12
Pollen 9.30 sur 12
Ozone Bon
PM2.5 Moyen
Flu Activity Non disponible.
METAR KMWK 290955Z AUTO 05012G17KT 10SM SCT050 23/19 A3013 RMK AO2 T02250189

More Conditions Fewer Conditions

Pression 30.13 pouce
Visibilité 10.0 Miles terrestres
Nuages Nuages épars 5000 ft
Point de rosée 64 ° F
Humidité 92%
Précipitations 0.00 pouce
Profondeur de la couche neigeuse Non disponible.
UV 0 sur 12
Pollen 9.30 sur 12
Ozone Bon
PM2.5 Moyen
Flu Activity Non disponible.
METAR KMWK 290955Z AUTO 05012G17KT 10SM SCT050 23/19 A3013 RMK AO2 T02250189

More Conditions Fewer Conditions

10-Day Weather Forecast

Almanac

Astronomie

Aug. 29, 2014 Lever Coucher
Temps réel 06:50 EDT 19:53 EDT
Crépuscule civil 06:23 EDT 20:19 EDT
Crépuscule nautique 05:52 EDT 20:51 EDT
Crépuscule astronomique 05:19 EDT 21:23 EDT
Lune 10:30 EDT 21:58 EDT
Durée de lumière visible 13h 56m
Longueur du jour
13h 03m
Tomorrow will be 2m 12s shorter.
Lune montante, 13% of the Moon is Illuminated
Aujourd'hui
Lune montante
Sep 2
Premier quartier
Sep 8
Pleine lune
Sep 15
Dernier quartier
Sep 24
Nouveau

Extrêmes aujourd'hui

State Highs State Lows

Community

WunderPhotos

Upload Photos

1,748,209 Photos téléchargées !

Nearby

Qualité de l'air

  Qualité de l'air Indice de la qualité de l'air Polluant
Hier Moyen
OZONE
Hier Moyen
PM2.5
Actuel Moyen
PM2.5
Actuel Bon
OZONE
vendredi Moyen
OZONE
vendredi Moyen
PM2.5
samedi Moyen
PM2.5
samedi Bon
OZONE
dimanche Bon
PM2.5
dimanche Bon
OZONE

Épaisseur de neige

Station Depth Altitude
Pas de nouvelles chutes de neige

Activité sismique

Ville Distance Mag. Time & Date
No recent earthquake activity has been reported nearby.
Minimum magnitude displayed is 2.5.

Températures des eaux côtières

Lieu Température
Aucun rapport de station

Stations météo à proximité